sensor_id;sensor_type;location;lat;lon;timestamp;P1;durP1;ratioP1;P2;durP2;ratioP2
78666;SDS011;67983;59.830;30.198;2023-04-10T00:00:02;23.55;;;9.38;;
78666;SDS011;67983;59.830;30.198;2023-04-10T00:02:30;21.38;;;7.93;;
78666;SDS011;67983;59.830;30.198;2023-04-10T00:04:57;16.33;;;6.15;;
78666;SDS011;67983;59.830;30.198;2023-04-10T00:07:24;17.88;;;6.93;;
78666;SDS011;67983;59.830;30.198;2023-04-10T00:09:55;19.17;;;7.38;;
78666;SDS011;67983;59.830;30.198;2023-04-10T00:12:27;16.38;;;5.55;;
78666;SDS011;67983;59.830;30.198;2023-04-10T00:14:55;16.38;;;6.53;;
78666;SDS011;67983;59.830;30.198;2023-04-10T00:17:23;18.88;;;6.80;;
78666;SDS011;67983;59.830;30.198;2023-04-10T00:19:50;21.50;;;9.18;;
78666;SDS011;67983;59.830;30.198;2023-04-10T00:22:17;15.50;;;6.18;;
78666;SDS011;67983;59.830;30.198;2023-04-10T00:24:45;14.40;;;6.30;;
78666;SDS011;67983;59.830;30.198;2023-04-10T00:27:13;19.42;;;6.30;;
78666;SDS011;67983;59.830;30.198;2023-04-10T00:29:40;16.52;;;7.18;;
78666;SDS011;67983;59.830;30.198;2023-04-10T00:32:07;20.58;;;8.43;;
78666;SDS011;67983;59.830;30.198;2023-04-10T00:34:35;20.75;;;8.82;;
78666;SDS011;67983;59.830;30.198;2023-04-10T00:37:02;19.08;;;8.00;;
78666;SDS011;67983;59.830;30.198;2023-04-10T00:39:33;15.80;;;7.60;;
78666;SDS011;67983;59.830;30.198;2023-04-10T00:42:00;18.25;;;8.18;;
78666;SDS011;67983;59.830;30.198;2023-04-10T00:44:27;26.75;;;11.80;;
78666;SDS011;67983;59.830;30.198;2023-04-10T00:46:55;18.00;;;8.18;;
78666;SDS011;67983;59.830;30.198;2023-04-10T00:49:50;18.88;;;7.85;;
78666;SDS011;67983;59.830;30.198;2023-04-10T00:52:18;13.15;;;6.82;;
78666;SDS011;67983;59.830;30.198;2023-04-10T00:54:45;14.95;;;6.50;;
78666;SDS011;67983;59.830;30.198;2023-04-10T00:57:14;18.35;;;7.93;;
78666;SDS011;67983;59.830;30.198;2023-04-10T00:59:41;10.82;;;6.30;;
78666;SDS011;67983;59.830;30.198;2023-04-10T01:02:08;16.65;;;5.50;;
78666;SDS011;67983;59.830;30.198;2023-04-10T01:04:37;9.75;;;5.00;;
78666;SDS011;67983;59.830;30.198;2023-04-10T01:07:34;8.88;;;5.20;;
78666;SDS011;67983;59.830;30.198;2023-04-10T01:10:19;15.50;;;6.47;;
78666;SDS011;67983;59.830;30.198;2023-04-10T01:12:54;8.23;;;5.10;;
78666;SDS011;67983;59.830;30.198;2023-04-10T01:15:31;10.98;;;5.05;;
78666;SDS011;67983;59.830;30.198;2023-04-10T01:18:03;11.15;;;5.18;;
78666;SDS011;67983;59.830;30.198;2023-04-10T01:20:40;10.02;;;5.22;;
78666;SDS011;67983;59.830;30.198;2023-04-10T01:23:20;16.75;;;6.00;;
78666;SDS011;67983;59.830;30.198;2023-04-10T01:26:10;11.30;;;5.40;;
78666;SDS011;67983;59.830;30.198;2023-04-10T01:28:53;20.38;;;8.75;;
78666;SDS011;67983;59.830;30.198;2023-04-10T01:31:33;13.15;;;6.10;;
78666;SDS011;67983;59.830;30.198;2023-04-10T01:34:06;8.77;;;4.78;;
78666;SDS011;67983;59.830;30.198;2023-04-10T01:36:35;13.23;;;6.75;;
78666;SDS011;67983;59.830;30.198;2023-04-10T01:39:07;12.18;;;4.72;;
78666;SDS011;67983;59.830;30.198;2023-04-10T01:42:00;12.80;;;6.25;;
78666;SDS011;67983;59.830;30.198;2023-04-10T01:44:40;9.75;;;4.68;;
78666;SDS011;67983;59.830;30.198;2023-04-10T01:47:07;11.27;;;4.75;;
78666;SDS011;67983;59.830;30.198;2023-04-10T01:49:37;9.48;;;4.63;;
78666;SDS011;67983;59.830;30.198;2023-04-10T01:52:08;7.78;;;4.28;;
78666;SDS011;67983;59.830;30.198;2023-04-10T01:54:40;12.13;;;4.32;;
78666;SDS011;67983;59.830;30.198;2023-04-10T01:57:13;8.30;;;4.07;;
78666;SDS011;67983;59.830;30.198;2023-04-10T01:59:57;11.73;;;4.68;;
78666;SDS011;67983;59.830;30.198;2023-04-10T02:02:24;10.45;;;3.75;;
78666;SDS011;67983;59.830;30.198;2023-04-10T02:04:57;8.80;;;4.22;;
78666;SDS011;67983;59.830;30.198;2023-04-10T02:07:25;10.30;;;4.32;;
78666;SDS011;67983;59.830;30.198;2023-04-10T02:10:03;10.05;;;4.68;;
78666;SDS011;67983;59.830;30.198;2023-04-10T02:12:38;10.00;;;4.93;;
78666;SDS011;67983;59.830;30.198;2023-04-10T02:15:40;8.05;;;4.03;;
78666;SDS011;67983;59.830;30.198;2023-04-10T02:18:09;7.32;;;4.03;;
78666;SDS011;67983;59.830;30.198;2023-04-10T02:20:36;11.60;;;4.78;;
78666;SDS011;67983;59.830;30.198;2023-04-10T02:23:03;10.85;;;4.78;;
78666;SDS011;67983;59.830;30.198;2023-04-10T02:25:34;13.25;;;4.95;;
78666;SDS011;67983;59.830;30.198;2023-04-10T02:28:04;14.20;;;5.60;;
78666;SDS011;67983;59.830;30.198;2023-04-10T02:30:32;11.50;;;5.70;;
78666;SDS011;67983;59.830;30.198;2023-04-10T02:33:08;22.77;;;10.65;;
78666;SDS011;67983;59.830;30.198;2023-04-10T02:35:36;28.02;;;11.13;;
78666;SDS011;67983;59.830;30.198;2023-04-10T02:38:03;20.98;;;9.07;;
78666;SDS011;67983;59.830;30.198;2023-04-10T02:40:34;24.85;;;10.63;;
78666;SDS011;67983;59.830;30.198;2023-04-10T02:43:13;24.58;;;10.98;;
78666;SDS011;67983;59.830;30.198;2023-04-10T02:45:43;20.63;;;9.63;;
78666;SDS011;67983;59.830;30.198;2023-04-10T02:48:17;22.48;;;10.05;;
78666;SDS011;67983;59.830;30.198;2023-04-10T02:50:54;37.78;;;14.45;;
78666;SDS011;67983;59.830;30.198;2023-04-10T02:53:23;27.20;;;12.85;;
78666;SDS011;67983;59.830;30.198;2023-04-10T02:55:54;30.15;;;12.32;;
78666;SDS011;67983;59.830;30.198;2023-04-10T02:58:24;34.92;;;12.85;;
78666;SDS011;67983;59.830;30.198;2023-04-10T03:00:53;34.38;;;12.90;;
78666;SDS011;67983;59.830;30.198;2023-04-10T03:03:36;25.33;;;9.75;;
78666;SDS011;67983;59.830;30.198;2023-04-10T03:06:03;20.55;;;8.80;;
78666;SDS011;67983;59.830;30.198;2023-04-10T03:08:36;22.63;;;7.90;;
78666;SDS011;67983;59.830;30.198;2023-04-10T03:11:04;17.50;;;7.95;;
78666;SDS011;67983;59.830;30.198;2023-04-10T03:13:32;17.48;;;6.97;;
78666;SDS011;67983;59.830;30.198;2023-04-10T03:15:59;25.73;;;7.85;;
78666;SDS011;67983;59.830;30.198;2023-04-10T03:18:26;13.95;;;5.82;;
78666;SDS011;67983;59.830;30.198;2023-04-10T03:20:58;19.02;;;7.60;;
78666;SDS011;67983;59.830;30.198;2023-04-10T03:23:26;13.90;;;6.28;;
78666;SDS011;67983;59.830;30.198;2023-04-10T03:25:53;14.63;;;5.65;;
78666;SDS011;67983;59.830;30.198;2023-04-10T03:28:25;20.55;;;7.60;;
78666;SDS011;67983;59.830;30.198;2023-04-10T03:30:54;21.10;;;7.55;;
78666;SDS011;67983;59.830;30.198;2023-04-10T03:33:22;21.48;;;7.00;;
78666;SDS011;67983;59.830;30.198;2023-04-10T03:35:48;19.13;;;7.63;;
78666;SDS011;67983;59.830;30.198;2023-04-10T03:38:19;21.42;;;7.28;;
78666;SDS011;67983;59.830;30.198;2023-04-10T03:40:49;14.45;;;6.63;;
78666;SDS011;67983;59.830;30.198;2023-04-10T03:43:25;18.25;;;7.55;;
78666;SDS011;67983;59.830;30.198;2023-04-10T03:45:52;20.95;;;6.82;;
78666;SDS011;67983;59.830;30.198;2023-04-10T03:48:19;15.82;;;6.20;;
78666;SDS011;67983;59.830;30.198;2023-04-10T03:50:46;17.33;;;7.10;;
78666;SDS011;67983;59.830;30.198;2023-04-10T03:53:14;16.92;;;6.45;;
78666;SDS011;67983;59.830;30.198;2023-04-10T03:55:43;14.93;;;5.50;;
78666;SDS011;67983;59.830;30.198;2023-04-10T03:58:10;20.80;;;7.45;;
78666;SDS011;67983;59.830;30.198;2023-04-10T04:00:39;17.30;;;6.85;;
78666;SDS011;67983;59.830;30.198;2023-04-10T04:06:28;9.82;;;5.32;;
78666;SDS011;67983;59.830;30.198;2023-04-10T04:09:30;19.58;;;6.57;;
78666;SDS011;67983;59.830;30.198;2023-04-10T04:12:22;13.27;;;6.28;;
78666;SDS011;67983;59.830;30.198;2023-04-10T04:15:24;15.25;;;7.00;;
78666;SDS011;67983;59.830;30.198;2023-04-10T04:18:14;18.85;;;6.35;;
78666;SDS011;67983;59.830;30.198;2023-04-10T04:20:46;16.98;;;6.57;;
78666;SDS011;67983;59.830;30.198;2023-04-10T04:23:32;12.93;;;6.57;;
78666;SDS011;67983;59.830;30.198;2023-04-10T04:26:22;19.02;;;7.30;;
78666;SDS011;67983;59.830;30.198;2023-04-10T04:29:14;12.18;;;5.28;;
78666;SDS011;67983;59.830;30.198;2023-04-10T04:32:09;18.75;;;7.28;;
78666;SDS011;67983;59.830;30.198;2023-04-10T04:34:54;15.90;;;6.97;;
78666;SDS011;67983;59.830;30.198;2023-04-10T04:37:31;17.70;;;7.40;;
78666;SDS011;67983;59.830;30.198;2023-04-10T04:40:18;21.55;;;7.07;;
78666;SDS011;67983;59.830;30.198;2023-04-10T04:43:07;13.45;;;6.78;;
78666;SDS011;67983;59.830;30.198;2023-04-10T04:45:47;22.95;;;6.50;;
78666;SDS011;67983;59.830;30.198;2023-04-10T04:48:41;28.73;;;7.28;;
78666;SDS011;67983;59.830;30.198;2023-04-10T04:51:31;15.80;;;5.75;;
78666;SDS011;67983;59.830;30.198;2023-04-10T04:54:27;14.65;;;4.93;;
78666;SDS011;67983;59.830;30.198;2023-04-10T04:57:14;15.55;;;5.63;;
78666;SDS011;67983;59.830;30.198;2023-04-10T04:59:55;17.88;;;5.97;;
78666;SDS011;67983;59.830;30.198;2023-04-10T05:02:48;26.17;;;7.18;;
78666;SDS011;67983;59.830;30.198;2023-04-10T05:05:40;16.35;;;5.95;;
78666;SDS011;67983;59.830;30.198;2023-04-10T05:08:40;18.48;;;6.53;;
78666;SDS011;67983;59.830;30.198;2023-04-10T05:11:31;15.38;;;6.18;;
78666;SDS011;67983;59.830;30.198;2023-04-10T05:14:31;20.67;;;6.35;;
78666;SDS011;67983;59.830;30.198;2023-04-10T05:17:21;15.80;;;6.88;;
78666;SDS011;67983;59.830;30.198;2023-04-10T05:20:17;14.65;;;5.38;;
78666;SDS011;67983;59.830;30.198;2023-04-10T05:23:20;15.60;;;5.82;;
78666;SDS011;67983;59.830;30.198;2023-04-10T05:25:56;27.73;;;7.18;;
78666;SDS011;67983;59.830;30.198;2023-04-10T05:28:51;16.15;;;5.93;;
78666;SDS011;67983;59.830;30.198;2023-04-10T05:31:44;23.73;;;6.07;;
78666;SDS011;67983;59.830;30.198;2023-04-10T05:34:18;10.30;;;4.78;;
78666;SDS011;67983;59.830;30.198;2023-04-10T05:37:12;16.13;;;5.90;;
78666;SDS011;67983;59.830;30.198;2023-04-10T05:40:04;14.25;;;5.80;;
78666;SDS011;67983;59.830;30.198;2023-04-10T05:42:57;18.92;;;4.35;;
78666;SDS011;67983;59.830;30.198;2023-04-10T05:45:34;9.93;;;5.13;;
78666;SDS011;67983;59.830;30.198;2023-04-10T05:48:40;10.77;;;5.18;;
78666;SDS011;67983;59.830;30.198;2023-04-10T05:51:26;10.85;;;4.57;;
78666;SDS011;67983;59.830;30.198;2023-04-10T05:54:17;8.32;;;4.18;;
78666;SDS011;67983;59.830;30.198;2023-04-10T05:57:06;20.42;;;5.18;;
78666;SDS011;67983;59.830;30.198;2023-04-10T05:59:34;17.63;;;5.68;;
78666;SDS011;67983;59.830;30.198;2023-04-10T06:02:21;11.93;;;4.93;;
78666;SDS011;67983;59.830;30.198;2023-04-10T06:04:50;14.10;;;5.65;;
78666;SDS011;67983;59.830;30.198;2023-04-10T06:07:17;10.07;;;4.25;;
78666;SDS011;67983;59.830;30.198;2023-04-10T06:09:47;15.48;;;6.18;;
78666;SDS011;67983;59.830;30.198;2023-04-10T06:12:14;19.25;;;5.22;;
78666;SDS011;67983;59.830;30.198;2023-04-10T06:14:42;11.90;;;4.55;;
78666;SDS011;67983;59.830;30.198;2023-04-10T06:17:11;10.23;;;5.35;;
78666;SDS011;67983;59.830;30.198;2023-04-10T06:19:38;10.93;;;4.70;;
78666;SDS011;67983;59.830;30.198;2023-04-10T06:22:06;7.18;;;3.08;;
78666;SDS011;67983;59.830;30.198;2023-04-10T06:24:34;14.98;;;6.20;;
78666;SDS011;67983;59.830;30.198;2023-04-10T06:27:03;9.57;;;4.18;;
78666;SDS011;67983;59.830;30.198;2023-04-10T06:29:29;11.00;;;5.45;;
78666;SDS011;67983;59.830;30.198;2023-04-10T06:31:57;7.00;;;3.67;;
78666;SDS011;67983;59.830;30.198;2023-04-10T06:34:32;15.80;;;4.85;;
78666;SDS011;67983;59.830;30.198;2023-04-10T06:39:31;10.82;;;4.07;;
78666;SDS011;67983;59.830;30.198;2023-04-10T06:42:03;8.18;;;3.45;;
78666;SDS011;67983;59.830;30.198;2023-04-10T06:44:53;8.73;;;3.25;;
78666;SDS011;67983;59.830;30.198;2023-04-10T06:47:19;9.13;;;3.45;;
78666;SDS011;67983;59.830;30.198;2023-04-10T06:49:47;8.93;;;3.58;;
78666;SDS011;67983;59.830;30.198;2023-04-10T06:52:16;10.85;;;4.50;;
78666;SDS011;67983;59.830;30.198;2023-04-10T06:54:43;10.30;;;3.92;;
78666;SDS011;67983;59.830;30.198;2023-04-10T06:57:14;6.50;;;2.78;;
78666;SDS011;67983;59.830;30.198;2023-04-10T06:59:41;5.10;;;2.63;;
78666;SDS011;67983;59.830;30.198;2023-04-10T07:02:09;7.80;;;3.47;;
78666;SDS011;67983;59.830;30.198;2023-04-10T07:04:36;7.20;;;2.97;;
78666;SDS011;67983;59.830;30.198;2023-04-10T07:07:03;13.35;;;4.75;;
78666;SDS011;67983;59.830;30.198;2023-04-10T07:12:03;6.38;;;2.80;;
78666;SDS011;67983;59.830;30.198;2023-04-10T07:14:33;6.63;;;3.42;;
78666;SDS011;67983;59.830;30.198;2023-04-10T07:17:02;5.35;;;3.15;;
78666;SDS011;67983;59.830;30.198;2023-04-10T07:19:29;4.38;;;2.90;;
78666;SDS011;67983;59.830;30.198;2023-04-10T07:21:56;10.90;;;3.33;;
78666;SDS011;67983;59.830;30.198;2023-04-10T07:24:23;9.65;;;4.45;;
78666;SDS011;67983;59.830;30.198;2023-04-10T07:26:50;7.88;;;3.28;;
78666;SDS011;67983;59.830;30.198;2023-04-10T07:29:17;7.32;;;3.10;;
78666;SDS011;67983;59.830;30.198;2023-04-10T07:31:48;6.35;;;3.38;;
78666;SDS011;67983;59.830;30.198;2023-04-10T07:34:16;5.32;;;2.95;;
78666;SDS011;67983;59.830;30.198;2023-04-10T07:36:43;4.40;;;2.70;;
78666;SDS011;67983;59.830;30.198;2023-04-10T07:39:09;7.30;;;3.33;;
78666;SDS011;67983;59.830;30.198;2023-04-10T07:41:38;9.40;;;3.15;;
78666;SDS011;67983;59.830;30.198;2023-04-10T07:44:07;8.98;;;3.70;;
78666;SDS011;67983;59.830;30.198;2023-04-10T07:46:35;7.68;;;3.85;;
78666;SDS011;67983;59.830;30.198;2023-04-10T07:49:06;7.72;;;3.60;;
78666;SDS011;67983;59.830;30.198;2023-04-10T07:51:33;6.88;;;4.03;;
78666;SDS011;67983;59.830;30.198;2023-04-10T07:54:01;9.80;;;4.55;;
78666;SDS011;67983;59.830;30.198;2023-04-10T07:56:29;8.93;;;3.72;;
78666;SDS011;67983;59.830;30.198;2023-04-10T07:58:59;11.52;;;4.25;;
78666;SDS011;67983;59.830;30.198;2023-04-10T08:01:29;8.02;;;4.18;;
78666;SDS011;67983;59.830;30.198;2023-04-10T08:03:56;7.72;;;3.60;;
78666;SDS011;67983;59.830;30.198;2023-04-10T08:06:27;7.93;;;4.30;;
78666;SDS011;67983;59.830;30.198;2023-04-10T08:08:54;5.43;;;3.67;;
78666;SDS011;67983;59.830;30.198;2023-04-10T08:11:24;12.70;;;4.72;;
78666;SDS011;67983;59.830;30.198;2023-04-10T08:13:52;10.80;;;3.83;;
78666;SDS011;67983;59.830;30.198;2023-04-10T08:16:21;12.95;;;4.18;;
78666;SDS011;67983;59.830;30.198;2023-04-10T08:18:50;7.30;;;4.10;;
78666;SDS011;67983;59.830;30.198;2023-04-10T08:21:17;9.23;;;3.58;;
78666;SDS011;67983;59.830;30.198;2023-04-10T08:23:46;14.52;;;6.15;;
78666;SDS011;67983;59.830;30.198;2023-04-10T08:26:18;15.57;;;6.45;;
78666;SDS011;67983;59.830;30.198;2023-04-10T08:28:47;10.43;;;4.75;;
78666;SDS011;67983;59.830;30.198;2023-04-10T08:31:15;12.35;;;4.88;;
78666;SDS011;67983;59.830;30.198;2023-04-10T08:33:42;8.40;;;4.88;;
78666;SDS011;67983;59.830;30.198;2023-04-10T08:36:10;7.70;;;4.50;;
78666;SDS011;67983;59.830;30.198;2023-04-10T08:38:40;7.60;;;3.67;;
78666;SDS011;67983;59.830;30.198;2023-04-10T08:41:10;9.13;;;3.60;;
78666;SDS011;67983;59.830;30.198;2023-04-10T08:43:37;11.30;;;4.07;;
78666;SDS011;67983;59.830;30.198;2023-04-10T08:46:04;8.05;;;3.97;;
78666;SDS011;67983;59.830;30.198;2023-04-10T08:51:36;9.57;;;4.47;;
78666;SDS011;67983;59.830;30.198;2023-04-10T08:54:13;11.73;;;5.10;;
78666;SDS011;67983;59.830;30.198;2023-04-10T08:56:48;8.90;;;4.05;;
78666;SDS011;67983;59.830;30.198;2023-04-10T08:59:16;8.88;;;3.30;;
78666;SDS011;67983;59.830;30.198;2023-04-10T09:01:44;5.63;;;3.22;;
78666;SDS011;67983;59.830;30.198;2023-04-10T09:04:16;8.43;;;3.42;;
78666;SDS011;67983;59.830;30.198;2023-04-10T09:06:44;6.72;;;3.22;;
78666;SDS011;67983;59.830;30.198;2023-04-10T09:09:10;5.50;;;3.17;;
78666;SDS011;67983;59.830;30.198;2023-04-10T09:11:58;5.93;;;3.13;;
78666;SDS011;67983;59.830;30.198;2023-04-10T09:14:33;6.20;;;3.55;;
78666;SDS011;67983;59.830;30.198;2023-04-10T09:17:10;7.18;;;3.60;;
78666;SDS011;67983;59.830;30.198;2023-04-10T09:19:40;6.82;;;3.17;;
78666;SDS011;67983;59.830;30.198;2023-04-10T09:22:07;6.57;;;2.90;;
78666;SDS011;67983;59.830;30.198;2023-04-10T09:24:38;8.85;;;4.20;;
78666;SDS011;67983;59.830;30.198;2023-04-10T09:27:08;7.22;;;3.13;;
78666;SDS011;67983;59.830;30.198;2023-04-10T09:29:40;6.38;;;2.95;;
78666;SDS011;67983;59.830;30.198;2023-04-10T09:32:12;15.23;;;5.85;;
78666;SDS011;67983;59.830;30.198;2023-04-10T09:34:51;12.25;;;4.32;;
78666;SDS011;67983;59.830;30.198;2023-04-10T09:37:20;8.57;;;3.30;;
78666;SDS011;67983;59.830;30.198;2023-04-10T09:39:47;5.53;;;3.53;;
78666;SDS011;67983;59.830;30.198;2023-04-10T09:42:16;6.50;;;2.90;;
78666;SDS011;67983;59.830;30.198;2023-04-10T09:44:58;9.93;;;3.28;;
78666;SDS011;67983;59.830;30.198;2023-04-10T09:47:27;10.70;;;4.15;;
78666;SDS011;67983;59.830;30.198;2023-04-10T09:49:57;5.57;;;2.90;;
78666;SDS011;67983;59.830;30.198;2023-04-10T09:52:27;5.82;;;3.80;;
78666;SDS011;67983;59.830;30.198;2023-04-10T09:54:56;6.75;;;2.88;;
78666;SDS011;67983;59.830;30.198;2023-04-10T09:57:27;5.03;;;3.40;;
78666;SDS011;67983;59.830;30.198;2023-04-10T09:59:58;7.93;;;3.05;;
78666;SDS011;67983;59.830;30.198;2023-04-10T10:02:27;8.85;;;3.38;;
78666;SDS011;67983;59.830;30.198;2023-04-10T10:04:56;4.53;;;2.83;;
78666;SDS011;67983;59.830;30.198;2023-04-10T10:07:25;5.90;;;3.20;;
78666;SDS011;67983;59.830;30.198;2023-04-10T10:09:54;6.53;;;3.15;;
78666;SDS011;67983;59.830;30.198;2023-04-10T10:12:27;9.52;;;4.43;;
78666;SDS011;67983;59.830;30.198;2023-04-10T10:17:28;11.30;;;3.60;;
78666;SDS011;67983;59.830;30.198;2023-04-10T10:20:01;4.70;;;2.70;;
78666;SDS011;67983;59.830;30.198;2023-04-10T10:22:56;6.05;;;2.72;;
78666;SDS011;67983;59.830;30.198;2023-04-10T10:25:24;7.80;;;2.60;;
78666;SDS011;67983;59.830;30.198;2023-04-10T10:27:53;3.22;;;2.35;;
78666;SDS011;67983;59.830;30.198;2023-04-10T10:30:22;3.40;;;2.30;;
78666;SDS011;67983;59.830;30.198;2023-04-10T10:32:52;5.05;;;2.90;;
78666;SDS011;67983;59.830;30.198;2023-04-10T10:35:19;4.25;;;2.30;;
78666;SDS011;67983;59.830;30.198;2023-04-10T10:37:49;4.43;;;2.97;;
78666;SDS011;67983;59.830;30.198;2023-04-10T10:40:18;5.70;;;2.90;;
78666;SDS011;67983;59.830;30.198;2023-04-10T10:42:54;4.50;;;2.63;;
78666;SDS011;67983;59.830;30.198;2023-04-10T10:45:32;4.85;;;2.67;;
78666;SDS011;67983;59.830;30.198;2023-04-10T10:48:06;9.93;;;3.40;;
78666;SDS011;67983;59.830;30.198;2023-04-10T10:50:52;4.65;;;2.85;;
78666;SDS011;67983;59.830;30.198;2023-04-10T10:59:02;8.63;;;3.20;;
78666;SDS011;67983;59.830;30.198;2023-04-10T11:01:29;3.42;;;2.55;;
78666;SDS011;67983;59.830;30.198;2023-04-10T11:03:56;4.80;;;3.03;;
78666;SDS011;67983;59.830;30.198;2023-04-10T11:15:43;5.45;;;2.95;;
78666;SDS011;67983;59.830;30.198;2023-04-10T11:18:11;3.47;;;2.65;;
78666;SDS011;67983;59.830;30.198;2023-04-10T11:23:35;4.85;;;2.80;;
78666;SDS011;67983;59.830;30.198;2023-04-10T11:26:03;3.80;;;2.60;;
78666;SDS011;67983;59.830;30.198;2023-04-10T11:28:37;4.80;;;3.00;;
78666;SDS011;67983;59.830;30.198;2023-04-10T11:31:31;5.00;;;3.10;;
78666;SDS011;67983;59.830;30.198;2023-04-10T11:34:01;3.40;;;2.15;;
78666;SDS011;67983;59.830;30.198;2023-04-10T11:36:30;3.00;;;2.00;;
78666;SDS011;67983;59.830;30.198;2023-04-10T11:38:57;3.15;;;2.08;;
78666;SDS011;67983;59.830;30.198;2023-04-10T11:41:29;4.90;;;2.58;;
78666;SDS011;67983;59.830;30.198;2023-04-10T11:43:58;6.03;;;2.85;;
78666;SDS011;67983;59.830;30.198;2023-04-10T11:46:26;3.58;;;2.85;;
78666;SDS011;67983;59.830;30.198;2023-04-10T11:48:56;4.57;;;2.85;;
78666;SDS011;67983;59.830;30.198;2023-04-10T11:51:24;4.25;;;2.25;;
78666;SDS011;67983;59.830;30.198;2023-04-10T11:54:03;9.15;;;3.03;;
78666;SDS011;67983;59.830;30.198;2023-04-10T11:56:31;2.42;;;2.15;;
78666;SDS011;67983;59.830;30.198;2023-04-10T11:58:59;8.30;;;2.92;;
78666;SDS011;67983;59.830;30.198;2023-04-10T12:01:32;5.05;;;3.30;;
78666;SDS011;67983;59.830;30.198;2023-04-10T12:04:01;9.80;;;5.43;;
78666;SDS011;67983;59.830;30.198;2023-04-10T12:06:28;13.38;;;6.22;;
78666;SDS011;67983;59.830;30.198;2023-04-10T12:09:00;12.07;;;5.95;;
78666;SDS011;67983;59.830;30.198;2023-04-10T12:11:47;9.63;;;4.95;;
78666;SDS011;67983;59.830;30.198;2023-04-10T12:14:16;6.95;;;5.10;;
78666;SDS011;67983;59.830;30.198;2023-04-10T12:16:45;12.90;;;6.13;;
78666;SDS011;67983;59.830;30.198;2023-04-10T12:19:14;11.57;;;6.28;;
78666;SDS011;67983;59.830;30.198;2023-04-10T12:21:43;10.95;;;5.68;;
78666;SDS011;67983;59.830;30.198;2023-04-10T12:24:12;13.93;;;5.40;;
78666;SDS011;67983;59.830;30.198;2023-04-10T12:26:46;17.80;;;6.15;;
78666;SDS011;67983;59.830;30.198;2023-04-10T12:29:14;21.13;;;6.50;;
78666;SDS011;67983;59.830;30.198;2023-04-10T12:31:41;9.23;;;4.90;;
78666;SDS011;67983;59.830;30.198;2023-04-10T12:34:08;8.00;;;5.10;;
78666;SDS011;67983;59.830;30.198;2023-04-10T12:36:41;10.30;;;5.07;;
78666;SDS011;67983;59.830;30.198;2023-04-10T12:39:21;19.95;;;7.85;;
78666;SDS011;67983;59.830;30.198;2023-04-10T12:42:17;25.42;;;9.10;;
78666;SDS011;67983;59.830;30.198;2023-04-10T12:44:48;20.73;;;7.75;;
78666;SDS011;67983;59.830;30.198;2023-04-10T12:47:18;14.63;;;8.00;;
78666;SDS011;67983;59.830;30.198;2023-04-10T12:52:40;14.35;;;7.35;;
78666;SDS011;67983;59.830;30.198;2023-04-10T12:55:08;14.38;;;6.47;;
78666;SDS011;67983;59.830;30.198;2023-04-10T13:00:08;20.23;;;7.22;;
78666;SDS011;67983;59.830;30.198;2023-04-10T13:02:38;13.98;;;7.45;;
78666;SDS011;67983;59.830;30.198;2023-04-10T13:05:10;19.45;;;6.65;;
78666;SDS011;67983;59.830;30.198;2023-04-10T13:07:40;13.15;;;6.68;;
78666;SDS011;67983;59.830;30.198;2023-04-10T13:10:07;19.55;;;8.68;;
78666;SDS011;67983;59.830;30.198;2023-04-10T13:12:38;14.48;;;6.68;;
78666;SDS011;67983;59.830;30.198;2023-04-10T13:15:07;14.07;;;6.45;;
78666;SDS011;67983;59.830;30.198;2023-04-10T13:17:35;10.35;;;5.20;;
78666;SDS011;67983;59.830;30.198;2023-04-10T13:20:03;16.27;;;6.80;;
78666;SDS011;67983;59.830;30.198;2023-04-10T13:22:37;18.52;;;7.28;;
78666;SDS011;67983;59.830;30.198;2023-04-10T13:25:07;17.80;;;7.43;;
78666;SDS011;67983;59.830;30.198;2023-04-10T13:27:36;15.80;;;6.47;;
78666;SDS011;67983;59.830;30.198;2023-04-10T13:30:04;13.15;;;7.00;;
78666;SDS011;67983;59.830;30.198;2023-04-10T13:32:32;15.75;;;7.88;;
78666;SDS011;67983;59.830;30.198;2023-04-10T13:34:59;16.67;;;7.57;;
78666;SDS011;67983;59.830;30.198;2023-04-10T13:37:26;13.75;;;6.72;;
78666;SDS011;67983;59.830;30.198;2023-04-10T13:39:55;12.55;;;5.00;;
78666;SDS011;67983;59.830;30.198;2023-04-10T13:42:22;9.75;;;5.13;;
78666;SDS011;67983;59.830;30.198;2023-04-10T13:44:51;7.57;;;4.05;;
78666;SDS011;67983;59.830;30.198;2023-04-10T13:47:18;8.32;;;4.20;;
78666;SDS011;67983;59.830;30.198;2023-04-10T13:49:46;12.32;;;4.95;;
78666;SDS011;67983;59.830;30.198;2023-04-10T13:52:14;7.65;;;3.40;;
78666;SDS011;67983;59.830;30.198;2023-04-10T13:54:41;5.72;;;3.03;;
78666;SDS011;67983;59.830;30.198;2023-04-10T13:57:09;6.97;;;3.20;;
78666;SDS011;67983;59.830;30.198;2023-04-10T13:59:38;8.10;;;3.38;;
78666;SDS011;67983;59.830;30.198;2023-04-10T14:02:30;10.45;;;3.20;;
78666;SDS011;67983;59.830;30.198;2023-04-10T14:04:59;6.47;;;3.33;;
78666;SDS011;67983;59.830;30.198;2023-04-10T14:07:27;12.35;;;3.60;;
78666;SDS011;67983;59.830;30.198;2023-04-10T14:09:54;9.63;;;3.63;;
78666;SDS011;67983;59.830;30.198;2023-04-10T14:12:23;9.05;;;4.60;;
78666;SDS011;67983;59.830;30.198;2023-04-10T14:14:50;8.38;;;4.47;;
78666;SDS011;67983;59.830;30.198;2023-04-10T14:17:18;9.40;;;4.20;;
78666;SDS011;67983;59.830;30.198;2023-04-10T14:19:47;13.00;;;4.47;;
78666;SDS011;67983;59.830;30.198;2023-04-10T14:22:18;9.43;;;4.60;;
78666;SDS011;67983;59.830;30.198;2023-04-10T14:24:47;7.72;;;3.92;;
78666;SDS011;67983;59.830;30.198;2023-04-10T14:27:14;8.70;;;4.15;;
78666;SDS011;67983;59.830;30.198;2023-04-10T14:29:45;10.63;;;3.50;;
78666;SDS011;67983;59.830;30.198;2023-04-10T14:32:14;8.45;;;3.45;;
78666;SDS011;67983;59.830;30.198;2023-04-10T14:34:41;7.93;;;3.70;;
78666;SDS011;67983;59.830;30.198;2023-04-10T14:37:10;6.90;;;3.35;;
78666;SDS011;67983;59.830;30.198;2023-04-10T14:39:40;6.03;;;3.50;;
78666;SDS011;67983;59.830;30.198;2023-04-10T14:42:09;5.43;;;3.35;;
78666;SDS011;67983;59.830;30.198;2023-04-10T14:44:37;6.30;;;3.10;;
78666;SDS011;67983;59.830;30.198;2023-04-10T14:47:06;6.50;;;3.20;;
78666;SDS011;67983;59.830;30.198;2023-04-10T14:49:33;11.88;;;3.30;;
78666;SDS011;67983;59.830;30.198;2023-04-10T14:52:01;9.32;;;3.30;;
78666;SDS011;67983;59.830;30.198;2023-04-10T14:54:33;9.73;;;4.00;;
78666;SDS011;67983;59.830;30.198;2023-04-10T14:57:25;10.43;;;3.45;;
78666;SDS011;67983;59.830;30.198;2023-04-10T14:59:55;8.13;;;3.45;;
78666;SDS011;67983;59.830;30.198;2023-04-10T15:02:26;6.88;;;3.10;;
78666;SDS011;67983;59.830;30.198;2023-04-10T15:04:55;8.18;;;3.47;;
78666;SDS011;67983;59.830;30.198;2023-04-10T15:07:22;8.75;;;4.22;;
78666;SDS011;67983;59.830;30.198;2023-04-10T15:09:49;9.30;;;3.20;;
78666;SDS011;67983;59.830;30.198;2023-04-10T15:12:25;8.93;;;3.40;;
78666;SDS011;67983;59.830;30.198;2023-04-10T15:14:52;6.28;;;3.47;;
78666;SDS011;67983;59.830;30.198;2023-04-10T15:17:20;6.97;;;3.25;;
78666;SDS011;67983;59.830;30.198;2023-04-10T15:19:52;5.30;;;3.00;;
78666;SDS011;67983;59.830;30.198;2023-04-10T15:22:19;4.90;;;2.70;;
78666;SDS011;67983;59.830;30.198;2023-04-10T15:24:46;10.85;;;4.30;;
78666;SDS011;67983;59.830;30.198;2023-04-10T15:27:15;9.90;;;3.78;;
78666;SDS011;67983;59.830;30.198;2023-04-10T15:32:16;9.40;;;3.58;;
78666;SDS011;67983;59.830;30.198;2023-04-10T15:34:44;8.40;;;3.67;;
78666;SDS011;67983;59.830;30.198;2023-04-10T15:37:13;10.88;;;3.95;;